Wykoff, Minnesota
Current Conditions -  °F | °C
As of 12:15 PM on Monday 26 Jan 2015 (Local Time) from KFKA Reporting Station
Overcast Overcast  
Wind Chill: 26°   Ceiling: 1200
Heat Index: 32°   Visibility: 10mi
Dew Point: 29°   Wind: 7mph
Humidity: 90%   Direction: 250°WSW
Pressure: 29.72"   Gusts: NA
Location:  43.71°N, 92.27°W
Report Text: KFKA 261815Z AUTO 25006KT 10SM OVC012 00/M01 A2972 RMK AO2 T00001015
Loading
Personal Weather Stations






























Interactive Weather Map New forecast layout! Learn more

10-Day Weather Forecast

Advertisements
Track Severe Weather on mobile